<?xml version="1.0" encoding="UTF-8" ?>
<gpx version="1.1" xmlns:xsi="http://www.w3.org/2001/XMLSchema-instance" 
    xmlns="http://www.topografix.com/GPX/1/1" 
    xsi:schemaLocation="http://www.topografix.com/GPX/1/1 http://www.topografix.com/GPX/1/1/gpx.xsd" 
    creator="Openrunner - https://www.openrunner.com" >	<trk>
						<name>11108263-Circuit Fresse FFC N°1</name>
						<trkseg>
					<trkpt lat="47.861720" lon="6.790710">
						<ele>606</ele>
						<time>2020-03-10T10:20:28Z</time>
					</trkpt>
					<trkpt lat="47.861940" lon="6.790330">
						<ele>607</ele>
						<time>2020-03-10T10:20:36Z</time>
					</trkpt>
					<trkpt lat="47.862150" lon="6.789980">
						<ele>610</ele>
						<time>2020-03-10T10:20:43Z</time>
					</trkpt>
					<trkpt lat="47.862430" lon="6.789790">
						<ele>611</ele>
						<time>2020-03-10T10:20:50Z</time>
					</trkpt>
					<trkpt lat="47.862770" lon="6.789600">
						<ele>611</ele>
						<time>2020-03-10T10:20:59Z</time>
					</trkpt>
					<trkpt lat="47.862970" lon="6.789540">
						<ele>611</ele>
						<time>2020-03-10T10:21:04Z</time>
					</trkpt>
					<trkpt lat="47.862930" lon="6.789400">
						<ele>611</ele>
						<time>2020-03-10T10:21:06Z</time>
					</trkpt>
					<trkpt lat="47.862830" lon="6.789110">
						<ele>612</ele>
						<time>2020-03-10T10:21:11Z</time>
					</trkpt>
					<trkpt lat="47.862750" lon="6.788850">
						<ele>614</ele>
						<time>2020-03-10T10:21:16Z</time>
					</trkpt>
					<trkpt lat="47.862700" lon="6.788590">
						<ele>615</ele>
						<time>2020-03-10T10:21:20Z</time>
					</trkpt>
					<trkpt lat="47.862710" lon="6.788330">
						<ele>617</ele>
						<time>2020-03-10T10:21:24Z</time>
					</trkpt>
					<trkpt lat="47.862710" lon="6.788060">
						<ele>621</ele>
						<time>2020-03-10T10:21:28Z</time>
					</trkpt>
					<trkpt lat="47.862660" lon="6.787740">
						<ele>625</ele>
						<time>2020-03-10T10:21:33Z</time>
					</trkpt>
					<trkpt lat="47.862580" lon="6.787380">
						<ele>629</ele>
						<time>2020-03-10T10:21:39Z</time>
					</trkpt>
					<trkpt lat="47.862520" lon="6.787130">
						<ele>632</ele>
						<time>2020-03-10T10:21:43Z</time>
					</trkpt>
					<trkpt lat="47.862430" lon="6.786930">
						<ele>635</ele>
						<time>2020-03-10T10:21:47Z</time>
					</trkpt>
					<trkpt lat="47.862270" lon="6.786720">
						<ele>639</ele>
						<time>2020-03-10T10:21:52Z</time>
					</trkpt>
					<trkpt lat="47.862220" lon="6.786510">
						<ele>642</ele>
						<time>2020-03-10T10:21:56Z</time>
					</trkpt>
					<trkpt lat="47.862190" lon="6.786280">
						<ele>645</ele>
						<time>2020-03-10T10:21:59Z</time>
					</trkpt>
					<trkpt lat="47.862240" lon="6.785900">
						<ele>648</ele>
						<time>2020-03-10T10:22:05Z</time>
					</trkpt>
					<trkpt lat="47.862150" lon="6.786010">
						<ele>648</ele>
						<time>2020-03-10T10:22:08Z</time>
					</trkpt>
					<trkpt lat="47.862100" lon="6.786280">
						<ele>645</ele>
						<time>2020-03-10T10:22:13Z</time>
					</trkpt>
					<trkpt lat="47.861990" lon="6.786590">
						<ele>643</ele>
						<time>2020-03-10T10:22:18Z</time>
					</trkpt>
					<trkpt lat="47.861860" lon="6.786930">
						<ele>639</ele>
						<time>2020-03-10T10:22:24Z</time>
					</trkpt>
					<trkpt lat="47.861600" lon="6.787440">
						<ele>634</ele>
						<time>2020-03-10T10:22:34Z</time>
					</trkpt>
					<trkpt lat="47.861400" lon="6.787950">
						<ele>632</ele>
						<time>2020-03-10T10:22:43Z</time>
					</trkpt>
					<trkpt lat="47.861170" lon="6.788400">
						<ele>632</ele>
						<time>2020-03-10T10:22:52Z</time>
					</trkpt>
					<trkpt lat="47.860900" lon="6.788950">
						<ele>634</ele>
						<time>2020-03-10T10:23:03Z</time>
					</trkpt>
					<trkpt lat="47.860710" lon="6.789270">
						<ele>637</ele>
						<time>2020-03-10T10:23:10Z</time>
					</trkpt>
					<trkpt lat="47.860580" lon="6.789490">
						<ele>638</ele>
						<time>2020-03-10T10:23:14Z</time>
					</trkpt>
					<trkpt lat="47.860480" lon="6.789700">
						<ele>639</ele>
						<time>2020-03-10T10:23:18Z</time>
					</trkpt>
					<trkpt lat="47.860330" lon="6.789940">
						<ele>639</ele>
						<time>2020-03-10T10:23:23Z</time>
					</trkpt>
					<trkpt lat="47.860170" lon="6.790120">
						<ele>641</ele>
						<time>2020-03-10T10:23:28Z</time>
					</trkpt>
					<trkpt lat="47.859910" lon="6.790240">
						<ele>646</ele>
						<time>2020-03-10T10:23:34Z</time>
					</trkpt>
					<trkpt lat="47.859800" lon="6.790400">
						<ele>647</ele>
						<time>2020-03-10T10:23:38Z</time>
					</trkpt>
					<trkpt lat="47.859680" lon="6.790520">
						<ele>650</ele>
						<time>2020-03-10T10:23:41Z</time>
					</trkpt>
					<trkpt lat="47.859550" lon="6.790640">
						<ele>653</ele>
						<time>2020-03-10T10:23:45Z</time>
					</trkpt>
					<trkpt lat="47.859490" lon="6.790820">
						<ele>653</ele>
						<time>2020-03-10T10:23:48Z</time>
					</trkpt>
					<trkpt lat="47.859560" lon="6.791230">
						<ele>649</ele>
						<time>2020-03-10T10:23:55Z</time>
					</trkpt>
					<trkpt lat="47.859590" lon="6.791550">
						<ele>648</ele>
						<time>2020-03-10T10:24:00Z</time>
					</trkpt>
					<trkpt lat="47.859660" lon="6.791950">
						<ele>647</ele>
						<time>2020-03-10T10:24:06Z</time>
					</trkpt>
					<trkpt lat="47.859770" lon="6.792290">
						<ele>645</ele>
						<time>2020-03-10T10:24:12Z</time>
					</trkpt>
					<trkpt lat="47.859950" lon="6.792710">
						<ele>641</ele>
						<time>2020-03-10T10:24:20Z</time>
					</trkpt>
					<trkpt lat="47.860040" lon="6.793260">
						<ele>638</ele>
						<time>2020-03-10T10:24:29Z</time>
					</trkpt>
					<trkpt lat="47.860050" lon="6.793620">
						<ele>638</ele>
						<time>2020-03-10T10:24:35Z</time>
					</trkpt>
					<trkpt lat="47.860080" lon="6.793980">
						<ele>637</ele>
						<time>2020-03-10T10:24:40Z</time>
					</trkpt>
					<trkpt lat="47.860060" lon="6.794360">
						<ele>636</ele>
						<time>2020-03-10T10:24:46Z</time>
					</trkpt>
					<trkpt lat="47.860030" lon="6.794560">
						<ele>635</ele>
						<time>2020-03-10T10:24:49Z</time>
					</trkpt>
					<trkpt lat="47.859940" lon="6.794830">
						<ele>634</ele>
						<time>2020-03-10T10:24:54Z</time>
					</trkpt>
					<trkpt lat="47.859830" lon="6.795130">
						<ele>634</ele>
						<time>2020-03-10T10:25:00Z</time>
					</trkpt>
					<trkpt lat="47.859610" lon="6.795330">
						<ele>635</ele>
						<time>2020-03-10T10:25:06Z</time>
					</trkpt>
					<trkpt lat="47.859450" lon="6.795660">
						<ele>632</ele>
						<time>2020-03-10T10:25:12Z</time>
					</trkpt>
					<trkpt lat="47.859330" lon="6.795810">
						<ele>629</ele>
						<time>2020-03-10T10:25:16Z</time>
					</trkpt>
					<trkpt lat="47.858950" lon="6.796050">
						<ele>627</ele>
						<time>2020-03-10T10:25:25Z</time>
					</trkpt>
					<trkpt lat="47.858590" lon="6.796300">
						<ele>623</ele>
						<time>2020-03-10T10:25:34Z</time>
					</trkpt>
					<trkpt lat="47.858350" lon="6.796280">
						<ele>624</ele>
						<time>2020-03-10T10:25:40Z</time>
					</trkpt>
					<trkpt lat="47.858110" lon="6.796330">
						<ele>624</ele>
						<time>2020-03-10T10:25:46Z</time>
					</trkpt>
					<trkpt lat="47.858010" lon="6.796400">
						<ele>623</ele>
						<time>2020-03-10T10:25:48Z</time>
					</trkpt>
					<trkpt lat="47.857820" lon="6.796340">
						<ele>624</ele>
						<time>2020-03-10T10:25:53Z</time>
					</trkpt>
					<trkpt lat="47.857580" lon="6.796490">
						<ele>622</ele>
						<time>2020-03-10T10:25:59Z</time>
					</trkpt>
					<trkpt lat="47.857340" lon="6.796330">
						<ele>623</ele>
						<time>2020-03-10T10:26:05Z</time>
					</trkpt>
					<trkpt lat="47.857120" lon="6.796160">
						<ele>623</ele>
						<time>2020-03-10T10:26:11Z</time>
					</trkpt>
					<trkpt lat="47.857000" lon="6.796050">
						<ele>623</ele>
						<time>2020-03-10T10:26:14Z</time>
					</trkpt>
					<trkpt lat="47.856890" lon="6.795890">
						<ele>623</ele>
						<time>2020-03-10T10:26:18Z</time>
					</trkpt>
					<trkpt lat="47.856720" lon="6.795500">
						<ele>625</ele>
						<time>2020-03-10T10:26:25Z</time>
					</trkpt>
					<trkpt lat="47.856660" lon="6.795680">
						<ele>622</ele>
						<time>2020-03-10T10:26:28Z</time>
					</trkpt>
					<trkpt lat="47.856560" lon="6.795730">
						<ele>621</ele>
						<time>2020-03-10T10:26:31Z</time>
					</trkpt>
					<trkpt lat="47.856400" lon="6.795660">
						<ele>621</ele>
						<time>2020-03-10T10:26:35Z</time>
					</trkpt>
					<trkpt lat="47.856240" lon="6.795590">
						<ele>620</ele>
						<time>2020-03-10T10:26:38Z</time>
					</trkpt>
					<trkpt lat="47.856080" lon="6.795600">
						<ele>619</ele>
						<time>2020-03-10T10:26:42Z</time>
					</trkpt>
					<trkpt lat="47.855910" lon="6.795610">
						<ele>618</ele>
						<time>2020-03-10T10:26:46Z</time>
					</trkpt>
					<trkpt lat="47.855850" lon="6.795630">
						<ele>617</ele>
						<time>2020-03-10T10:26:48Z</time>
					</trkpt>
					<trkpt lat="47.855780" lon="6.795680">
						<ele>617</ele>
						<time>2020-03-10T10:26:49Z</time>
					</trkpt>
					<trkpt lat="47.855690" lon="6.795620">
						<ele>618</ele>
						<time>2020-03-10T10:26:52Z</time>
					</trkpt>
					<trkpt lat="47.855610" lon="6.795570">
						<ele>618</ele>
						<time>2020-03-10T10:26:54Z</time>
					</trkpt>
					<trkpt lat="47.855530" lon="6.795590">
						<ele>619</ele>
						<time>2020-03-10T10:26:56Z</time>
					</trkpt>
					<trkpt lat="47.855520" lon="6.795700">
						<ele>618</ele>
						<time>2020-03-10T10:26:57Z</time>
					</trkpt>
					<trkpt lat="47.855590" lon="6.796040">
						<ele>618</ele>
						<time>2020-03-10T10:27:03Z</time>
					</trkpt>
					<trkpt lat="47.855620" lon="6.796240">
						<ele>618</ele>
						<time>2020-03-10T10:27:06Z</time>
					</trkpt>
					<trkpt lat="47.855610" lon="6.796360">
						<ele>618</ele>
						<time>2020-03-10T10:27:08Z</time>
					</trkpt>
					<trkpt lat="47.855590" lon="6.796500">
						<ele>619</ele>
						<time>2020-03-10T10:27:10Z</time>
					</trkpt>
					<trkpt lat="47.855550" lon="6.796660">
						<ele>619</ele>
						<time>2020-03-10T10:27:13Z</time>
					</trkpt>
					<trkpt lat="47.855530" lon="6.796760">
						<ele>620</ele>
						<time>2020-03-10T10:27:15Z</time>
					</trkpt>
					<trkpt lat="47.855710" lon="6.797170">
						<ele>618</ele>
						<time>2020-03-10T10:27:22Z</time>
					</trkpt>
					<trkpt lat="47.855800" lon="6.797490">
						<ele>616</ele>
						<time>2020-03-10T10:27:28Z</time>
					</trkpt>
					<trkpt lat="47.855870" lon="6.797930">
						<ele>615</ele>
						<time>2020-03-10T10:27:35Z</time>
					</trkpt>
					<trkpt lat="47.855970" lon="6.798340">
						<ele>614</ele>
						<time>2020-03-10T10:27:42Z</time>
					</trkpt>
					<trkpt lat="47.856130" lon="6.798550">
						<ele>611</ele>
						<time>2020-03-10T10:27:47Z</time>
					</trkpt>
					<trkpt lat="47.856320" lon="6.798730">
						<ele>607</ele>
						<time>2020-03-10T10:27:52Z</time>
					</trkpt>
					<trkpt lat="47.856470" lon="6.798940">
						<ele>604</ele>
						<time>2020-03-10T10:27:57Z</time>
					</trkpt>
					<trkpt lat="47.856460" lon="6.798670">
						<ele>603</ele>
						<time>2020-03-10T10:28:01Z</time>
					</trkpt>
					<trkpt lat="47.856400" lon="6.798360">
						<ele>603</ele>
						<time>2020-03-10T10:28:06Z</time>
					</trkpt>
					<trkpt lat="47.856340" lon="6.798060">
						<ele>606</ele>
						<time>2020-03-10T10:28:11Z</time>
					</trkpt>
					<trkpt lat="47.856290" lon="6.797770">
						<ele>608</ele>
						<time>2020-03-10T10:28:16Z</time>
					</trkpt>
					<trkpt lat="47.856390" lon="6.797600">
						<ele>607</ele>
						<time>2020-03-10T10:28:19Z</time>
					</trkpt>
					<trkpt lat="47.856540" lon="6.797710">
						<ele>604</ele>
						<time>2020-03-10T10:28:23Z</time>
					</trkpt>
					<trkpt lat="47.856680" lon="6.798000">
						<ele>599</ele>
						<time>2020-03-10T10:28:29Z</time>
					</trkpt>
					<trkpt lat="47.856790" lon="6.798310">
						<ele>596</ele>
						<time>2020-03-10T10:28:34Z</time>
					</trkpt>
					<trkpt lat="47.856760" lon="6.798530">
						<ele>597</ele>
						<time>2020-03-10T10:28:38Z</time>
					</trkpt>
					<trkpt lat="47.856790" lon="6.798840">
						<ele>597</ele>
						<time>2020-03-10T10:28:43Z</time>
					</trkpt>
					<trkpt lat="47.856780" lon="6.799330">
						<ele>599</ele>
						<time>2020-03-10T10:28:50Z</time>
					</trkpt>
					<trkpt lat="47.856810" lon="6.799680">
						<ele>601</ele>
						<time>2020-03-10T10:28:56Z</time>
					</trkpt>
					<trkpt lat="47.856750" lon="6.800050">
						<ele>606</ele>
						<time>2020-03-10T10:29:02Z</time>
					</trkpt>
					<trkpt lat="47.856690" lon="6.800370">
						<ele>610</ele>
						<time>2020-03-10T10:29:07Z</time>
					</trkpt>
					<trkpt lat="47.856640" lon="6.800670">
						<ele>615</ele>
						<time>2020-03-10T10:29:12Z</time>
					</trkpt>
					<trkpt lat="47.856610" lon="6.800990">
						<ele>618</ele>
						<time>2020-03-10T10:29:17Z</time>
					</trkpt>
					<trkpt lat="47.856540" lon="6.801330">
						<ele>619</ele>
						<time>2020-03-10T10:29:22Z</time>
					</trkpt>
					<trkpt lat="47.856420" lon="6.801640">
						<ele>622</ele>
						<time>2020-03-10T10:29:28Z</time>
					</trkpt>
					<trkpt lat="47.856300" lon="6.801820">
						<ele>623</ele>
						<time>2020-03-10T10:29:32Z</time>
					</trkpt>
					<trkpt lat="47.856190" lon="6.802040">
						<ele>625</ele>
						<time>2020-03-10T10:29:36Z</time>
					</trkpt>
					<trkpt lat="47.856150" lon="6.802290">
						<ele>624</ele>
						<time>2020-03-10T10:29:40Z</time>
					</trkpt>
					<trkpt lat="47.856070" lon="6.802500">
						<ele>624</ele>
						<time>2020-03-10T10:29:44Z</time>
					</trkpt>
					<trkpt lat="47.855960" lon="6.802590">
						<ele>625</ele>
						<time>2020-03-10T10:29:47Z</time>
					</trkpt>
					<trkpt lat="47.855800" lon="6.802510">
						<ele>630</ele>
						<time>2020-03-10T10:29:51Z</time>
					</trkpt>
					<trkpt lat="47.855700" lon="6.802370">
						<ele>633</ele>
						<time>2020-03-10T10:29:54Z</time>
					</trkpt>
					<trkpt lat="47.855580" lon="6.802370">
						<ele>636</ele>
						<time>2020-03-10T10:29:57Z</time>
					</trkpt>
					<trkpt lat="47.855500" lon="6.802520">
						<ele>637</ele>
						<time>2020-03-10T10:30:00Z</time>
					</trkpt>
					<trkpt lat="47.855370" lon="6.802760">
						<ele>636</ele>
						<time>2020-03-10T10:30:05Z</time>
					</trkpt>
					<trkpt lat="47.855260" lon="6.802950">
						<ele>635</ele>
						<time>2020-03-10T10:30:09Z</time>
					</trkpt>
					<trkpt lat="47.855080" lon="6.803110">
						<ele>637</ele>
						<time>2020-03-10T10:30:14Z</time>
					</trkpt>
					<trkpt lat="47.854910" lon="6.803290">
						<ele>635</ele>
						<time>2020-03-10T10:30:18Z</time>
					</trkpt>
					<trkpt lat="47.854720" lon="6.803530">
						<ele>629</ele>
						<time>2020-03-10T10:30:24Z</time>
					</trkpt>
					<trkpt lat="47.854520" lon="6.803690">
						<ele>625</ele>
						<time>2020-03-10T10:30:30Z</time>
					</trkpt>
					<trkpt lat="47.854290" lon="6.803840">
						<ele>623</ele>
						<time>2020-03-10T10:30:35Z</time>
					</trkpt>
					<trkpt lat="47.854070" lon="6.803920">
						<ele>621</ele>
						<time>2020-03-10T10:30:41Z</time>
					</trkpt>
					<trkpt lat="47.853860" lon="6.803900">
						<ele>620</ele>
						<time>2020-03-10T10:30:46Z</time>
					</trkpt>
					<trkpt lat="47.853670" lon="6.803910">
						<ele>619</ele>
						<time>2020-03-10T10:30:50Z</time>
					</trkpt>
					<trkpt lat="47.853810" lon="6.804120">
						<ele>614</ele>
						<time>2020-03-10T10:30:55Z</time>
					</trkpt>
					<trkpt lat="47.854000" lon="6.804240">
						<ele>612</ele>
						<time>2020-03-10T10:31:00Z</time>
					</trkpt>
					<trkpt lat="47.854300" lon="6.804210">
						<ele>612</ele>
						<time>2020-03-10T10:31:07Z</time>
					</trkpt>
					<trkpt lat="47.854620" lon="6.804190">
						<ele>610</ele>
						<time>2020-03-10T10:31:14Z</time>
					</trkpt>
					<trkpt lat="47.854970" lon="6.804100">
						<ele>609</ele>
						<time>2020-03-10T10:31:22Z</time>
					</trkpt>
					<trkpt lat="47.855350" lon="6.804050">
						<ele>604</ele>
						<time>2020-03-10T10:31:31Z</time>
					</trkpt>
					<trkpt lat="47.855640" lon="6.803980">
						<ele>600</ele>
						<time>2020-03-10T10:31:38Z</time>
					</trkpt>
					<trkpt lat="47.855930" lon="6.803980">
						<ele>594</ele>
						<time>2020-03-10T10:31:45Z</time>
					</trkpt>
					<trkpt lat="47.856390" lon="6.803980">
						<ele>585</ele>
						<time>2020-03-10T10:31:56Z</time>
					</trkpt>
					<trkpt lat="47.856650" lon="6.803910">
						<ele>581</ele>
						<time>2020-03-10T10:32:02Z</time>
					</trkpt>
					<trkpt lat="47.856990" lon="6.803920">
						<ele>574</ele>
						<time>2020-03-10T10:32:10Z</time>
					</trkpt>
					<trkpt lat="47.857340" lon="6.803880">
						<ele>569</ele>
						<time>2020-03-10T10:32:18Z</time>
					</trkpt>
					<trkpt lat="47.857580" lon="6.803730">
						<ele>567</ele>
						<time>2020-03-10T10:32:24Z</time>
					</trkpt>
					<trkpt lat="47.857740" lon="6.803620">
						<ele>566</ele>
						<time>2020-03-10T10:32:28Z</time>
					</trkpt>
					<trkpt lat="47.857880" lon="6.803650">
						<ele>564</ele>
						<time>2020-03-10T10:32:31Z</time>
					</trkpt>
					<trkpt lat="47.857990" lon="6.803060">
						<ele>570</ele>
						<time>2020-03-10T10:32:41Z</time>
					</trkpt>
					<trkpt lat="47.858030" lon="6.802800">
						<ele>572</ele>
						<time>2020-03-10T10:32:45Z</time>
					</trkpt>
					<trkpt lat="47.858040" lon="6.802580">
						<ele>574</ele>
						<time>2020-03-10T10:32:49Z</time>
					</trkpt>
					<trkpt lat="47.858050" lon="6.802340">
						<ele>576</ele>
						<time>2020-03-10T10:32:52Z</time>
					</trkpt>
					<trkpt lat="47.858120" lon="6.802050">
						<ele>577</ele>
						<time>2020-03-10T10:32:57Z</time>
					</trkpt>
					<trkpt lat="47.858180" lon="6.801760">
						<ele>578</ele>
						<time>2020-03-10T10:33:02Z</time>
					</trkpt>
					<trkpt lat="47.858160" lon="6.801560">
						<ele>580</ele>
						<time>2020-03-10T10:33:05Z</time>
					</trkpt>
					<trkpt lat="47.858080" lon="6.801310">
						<ele>582</ele>
						<time>2020-03-10T10:33:10Z</time>
					</trkpt>
					<trkpt lat="47.858050" lon="6.801120">
						<ele>583</ele>
						<time>2020-03-10T10:33:13Z</time>
					</trkpt>
					<trkpt lat="47.858040" lon="6.800830">
						<ele>584</ele>
						<time>2020-03-10T10:33:17Z</time>
					</trkpt>
					<trkpt lat="47.858020" lon="6.800550">
						<ele>583</ele>
						<time>2020-03-10T10:33:22Z</time>
					</trkpt>
					<trkpt lat="47.857990" lon="6.800300">
						<ele>583</ele>
						<time>2020-03-10T10:33:26Z</time>
					</trkpt>
					<trkpt lat="47.857950" lon="6.800060">
						<ele>583</ele>
						<time>2020-03-10T10:33:29Z</time>
					</trkpt>
					<trkpt lat="47.857880" lon="6.799870">
						<ele>583</ele>
						<time>2020-03-10T10:33:33Z</time>
					</trkpt>
					<trkpt lat="47.857790" lon="6.799590">
						<ele>583</ele>
						<time>2020-03-10T10:33:38Z</time>
					</trkpt>
					<trkpt lat="47.857520" lon="6.799390">
						<ele>586</ele>
						<time>2020-03-10T10:33:45Z</time>
					</trkpt>
					<trkpt lat="47.857410" lon="6.799200">
						<ele>587</ele>
						<time>2020-03-10T10:33:49Z</time>
					</trkpt>
					<trkpt lat="47.857180" lon="6.798830">
						<ele>591</ele>
						<time>2020-03-10T10:33:57Z</time>
					</trkpt>
					<trkpt lat="47.856960" lon="6.798590">
						<ele>594</ele>
						<time>2020-03-10T10:34:03Z</time>
					</trkpt>
					<trkpt lat="47.856860" lon="6.798430">
						<ele>595</ele>
						<time>2020-03-10T10:34:06Z</time>
					</trkpt>
					<trkpt lat="47.856910" lon="6.798280">
						<ele>595</ele>
						<time>2020-03-10T10:34:09Z</time>
					</trkpt>
					<trkpt lat="47.857100" lon="6.798250">
						<ele>594</ele>
						<time>2020-03-10T10:34:13Z</time>
					</trkpt>
					<trkpt lat="47.857380" lon="6.798240">
						<ele>592</ele>
						<time>2020-03-10T10:34:20Z</time>
					</trkpt>
					<trkpt lat="47.857530" lon="6.798090">
						<ele>594</ele>
						<time>2020-03-10T10:34:24Z</time>
					</trkpt>
					<trkpt lat="47.857370" lon="6.797580">
						<ele>603</ele>
						<time>2020-03-10T10:34:33Z</time>
					</trkpt>
					<trkpt lat="47.857380" lon="6.797500">
						<ele>604</ele>
						<time>2020-03-10T10:34:34Z</time>
					</trkpt>
					<trkpt lat="47.857540" lon="6.797400">
						<ele>606</ele>
						<time>2020-03-10T10:34:38Z</time>
					</trkpt>
					<trkpt lat="47.857750" lon="6.797200">
						<ele>609</ele>
						<time>2020-03-10T10:34:44Z</time>
					</trkpt>
					<trkpt lat="47.857960" lon="6.797000">
						<ele>612</ele>
						<time>2020-03-10T10:34:50Z</time>
					</trkpt>
					<trkpt lat="47.858130" lon="6.796760">
						<ele>616</ele>
						<time>2020-03-10T10:34:55Z</time>
					</trkpt>
					<trkpt lat="47.858230" lon="6.796600">
						<ele>619</ele>
						<time>2020-03-10T10:34:59Z</time>
					</trkpt>
					<trkpt lat="47.858490" lon="6.796450">
						<ele>621</ele>
						<time>2020-03-10T10:35:05Z</time>
					</trkpt>
					<trkpt lat="47.858740" lon="6.796300">
						<ele>623</ele>
						<time>2020-03-10T10:35:12Z</time>
					</trkpt>
					<trkpt lat="47.859020" lon="6.796120">
						<ele>625</ele>
						<time>2020-03-10T10:35:19Z</time>
					</trkpt>
					<trkpt lat="47.859280" lon="6.795960">
						<ele>627</ele>
						<time>2020-03-10T10:35:25Z</time>
					</trkpt>
					<trkpt lat="47.859460" lon="6.795770">
						<ele>630</ele>
						<time>2020-03-10T10:35:31Z</time>
					</trkpt>
					<trkpt lat="47.859580" lon="6.795510">
						<ele>633</ele>
						<time>2020-03-10T10:35:35Z</time>
					</trkpt>
					<trkpt lat="47.859700" lon="6.795380">
						<ele>633</ele>
						<time>2020-03-10T10:35:39Z</time>
					</trkpt>
					<trkpt lat="47.859840" lon="6.795210">
						<ele>633</ele>
						<time>2020-03-10T10:35:43Z</time>
					</trkpt>
					<trkpt lat="47.859930" lon="6.795040">
						<ele>632</ele>
						<time>2020-03-10T10:35:47Z</time>
					</trkpt>
					<trkpt lat="47.859980" lon="6.794800">
						<ele>633</ele>
						<time>2020-03-10T10:35:50Z</time>
					</trkpt>
					<trkpt lat="47.860060" lon="6.794630">
						<ele>634</ele>
						<time>2020-03-10T10:35:54Z</time>
					</trkpt>
					<trkpt lat="47.860080" lon="6.794490">
						<ele>635</ele>
						<time>2020-03-10T10:35:56Z</time>
					</trkpt>
					<trkpt lat="47.860120" lon="6.794300">
						<ele>636</ele>
						<time>2020-03-10T10:35:59Z</time>
					</trkpt>
					<trkpt lat="47.860220" lon="6.794120">
						<ele>635</ele>
						<time>2020-03-10T10:36:03Z</time>
					</trkpt>
					<trkpt lat="47.860290" lon="6.794000">
						<ele>633</ele>
						<time>2020-03-10T10:36:05Z</time>
					</trkpt>
					<trkpt lat="47.860310" lon="6.793760">
						<ele>632</ele>
						<time>2020-03-10T10:36:09Z</time>
					</trkpt>
					<trkpt lat="47.860380" lon="6.793440">
						<ele>630</ele>
						<time>2020-03-10T10:36:14Z</time>
					</trkpt>
					<trkpt lat="47.860440" lon="6.793130">
						<ele>628</ele>
						<time>2020-03-10T10:36:19Z</time>
					</trkpt>
					<trkpt lat="47.860510" lon="6.793010">
						<ele>626</ele>
						<time>2020-03-10T10:36:22Z</time>
					</trkpt>
					<trkpt lat="47.860530" lon="6.792820">
						<ele>625</ele>
						<time>2020-03-10T10:36:25Z</time>
					</trkpt>
					<trkpt lat="47.860550" lon="6.792640">
						<ele>625</ele>
						<time>2020-03-10T10:36:28Z</time>
					</trkpt>
					<trkpt lat="47.860590" lon="6.792490">
						<ele>623</ele>
						<time>2020-03-10T10:36:30Z</time>
					</trkpt>
					<trkpt lat="47.860610" lon="6.792230">
						<ele>620</ele>
						<time>2020-03-10T10:36:34Z</time>
					</trkpt>
					<trkpt lat="47.860630" lon="6.792020">
						<ele>618</ele>
						<time>2020-03-10T10:36:38Z</time>
					</trkpt>
					<trkpt lat="47.860700" lon="6.791850">
						<ele>614</ele>
						<time>2020-03-10T10:36:41Z</time>
					</trkpt>
					<trkpt lat="47.860800" lon="6.791590">
						<ele>610</ele>
						<time>2020-03-10T10:36:46Z</time>
					</trkpt>
					<trkpt lat="47.860870" lon="6.791430">
						<ele>610</ele>
						<time>2020-03-10T10:36:49Z</time>
					</trkpt>
					<trkpt lat="47.861040" lon="6.791440">
						<ele>608</ele>
						<time>2020-03-10T10:36:52Z</time>
					</trkpt>
					<trkpt lat="47.861260" lon="6.791480">
						<ele>606</ele>
						<time>2020-03-10T10:36:58Z</time>
					</trkpt>
					<trkpt lat="47.861430" lon="6.791530">
						<ele>605</ele>
						<time>2020-03-10T10:37:02Z</time>
					</trkpt>
					<trkpt lat="47.861520" lon="6.791450">
						<ele>604</ele>
						<time>2020-03-10T10:37:04Z</time>
					</trkpt>
					<trkpt lat="47.861570" lon="6.791240">
						<ele>605</ele>
						<time>2020-03-10T10:37:08Z</time>
					</trkpt>
					<trkpt lat="47.861690" lon="6.790820">
						<ele>606</ele>
						<time>2020-03-10T10:37:15Z</time>
					</trkpt>
					</trkseg>
				</trk>
			</gpx>